Decoded Metar for TTPP (PORT-OF-SPAIN in TRINIDAD AND TOBAGO) (IATA:POS) | Meteo·Mobile Aviation Weather
aviador You're here:

TTPP Decoded Metar

PORT-OF-SPAIN in TRINIDAD AND TOBAGO
Report Time2019-01-20 10:00:00
UTC Time2019-01-20 10:35:32
Flight Rules vfr VFR
WindCalm
Visibility9999 m
Phenomena:N/A
Clouds:Few 015 Hf
CeilingNone
Temp21°C (ISA +6)
Dew Point21°C (100% RH)
QNH1014 hPa
Density Alt1,053 ft
Elevation49 ft
Report Wrong Elevation
Raw Report
TTPP 201000Z 00000KT 9999 FEW015 21/21 Q1014 NOSIG=

Extra information for TTPP:More info

Metar Taf Metar & Taf Last 4 Metars F.Rules Stats Wind Profile Meteogram Temp Stats Airport Information Weather charts Add Link Nearby VenuesMetar ALERT Operation Metar Decoded Social comments